Time;durP1;ratioP1;P1;durP2;ratioP2;P2;SDS_P1;SDS_P2;PMS_P1;PMS_P2;Temp;Humidity;BMP_temperature;BMP_pressure;BME280_temperature;BME280_humidity;BME280_pressure;Samples;Min_cycle;Max_cycle;Signal;HPM_P1;HPM_P2
2021/12/27 00:00:40;;;;;;;;;69.00;54.00;;;;;20.56;43.49;100999.25;109358;1279;23148;-85
2021/12/27 00:03:09;;;;;;;;;77.00;57.67;;;;;20.55;43.46;100999.14;109364;1279;19474;-86
2021/12/27 00:05:35;;;;;;;;;75.00;58.50;;;;;20.56;43.42;100993.42;109376;1279;20083;-86
2021/12/27 00:08:01;;;;;;;;;77.00;58.67;;;;;20.55;43.33;100992.98;109387;1280;20729;-85
2021/12/27 00:10:28;;;;;;;;;70.00;56.33;;;;;20.54;43.37;100996.83;109319;1279;23081;-85
2021/12/27 00:12:54;;;;;;;;;76.50;59.00;;;;;20.53;43.26;100997.31;109380;1280;20323;-83
2021/12/27 00:15:19;;;;;;;;;73.00;56.67;;;;;20.53;43.34;101004.02;109349;1280;21932;-85
2021/12/27 00:17:45;;;;;;;;;69.00;55.00;;;;;20.52;43.44;101001.80;109238;1280;22054;-85
2021/12/27 00:20:11;;;;;;;;;74.00;57.67;;;;;20.53;43.22;101000.65;109136;1277;249222;-86
2021/12/27 00:22:37;;;;;;;;;73.67;56.00;;;;;20.53;43.20;101002.39;109319;1279;21664;-85
2021/12/27 00:25:03;;;;;;;;;75.67;57.33;;;;;20.53;43.08;100995.89;109336;1280;19181;-86
2021/12/27 00:27:29;;;;;;;;;75.33;58.00;;;;;20.53;43.14;100994.12;109353;1280;19587;-85
2021/12/27 00:29:55;;;;;;;;;74.33;59.00;;;;;20.52;43.11;100999.25;109342;1279;20283;-86
2021/12/27 00:32:21;;;;;;;;;80.00;59.00;;;;;20.52;43.19;100998.77;109319;1279;21878;-85
2021/12/27 00:34:47;;;;;;;;;76.00;58.00;;;;;20.51;43.00;100998.66;109328;1279;19927;-86
2021/12/27 00:37:13;;;;;;;;;77.33;59.00;;;;;20.47;43.16;100990.91;109314;1279;20717;-86
2021/12/27 00:39:39;;;;;;;;;76.33;60.33;;;;;20.50;43.03;100997.37;109365;1279;19721;-86
2021/12/27 00:42:05;;;;;;;;;76.67;60.33;;;;;20.49;42.96;100994.34;109309;1279;19485;-86
2021/12/27 00:44:31;;;;;;;;;79.50;60.00;;;;;20.47;42.88;100991.09;109315;1279;20714;-86
2021/12/27 00:46:56;;;;;;;;;77.67;59.00;;;;;20.49;43.04;100997.38;109341;1280;19425;-86
2021/12/27 00:49:22;;;;;;;;;75.00;58.00;;;;;20.50;42.71;100995.36;109303;1279;22296;-87
2021/12/27 00:51:48;;;;;;;;;71.67;58.67;;;;;20.50;42.79;100995.36;109359;1280;20158;-86
2021/12/27 00:54:14;;;;;;;;;75.67;59.67;;;;;20.51;42.69;100993.80;109324;1280;19991;-86
2021/12/27 00:56:40;;;;;;;;;76.67;59.00;;;;;20.51;42.60;100990.09;109316;1279;19707;-86
2021/12/27 00:59:06;;;;;;;;;76.33;59.00;;;;;20.52;42.64;100993.27;109303;1280;20143;-86
2021/12/27 01:01:31;;;;;;;;;79.00;60.33;;;;;20.51;42.53;100992.85;109301;1280;19328;-86
2021/12/27 01:03:59;;;;;;;;;83.33;62.00;;;;;20.51;42.46;100991.20;109301;1280;20227;-86
2021/12/27 01:06:25;;;;;;;;;75.50;59.00;;;;;20.51;42.50;100988.83;109208;1279;21865;-86
2021/12/27 01:08:52;;;;;;;;;74.33;60.67;;;;;20.51;42.28;100991.25;109342;1280;19367;-85
2021/12/27 01:11:26;;;;;;;;;77.33;61.67;;;;;20.51;42.35;100993.55;109313;1280;19787;-86
2021/12/27 01:14:02;;;;;;;;;78.67;60.00;;;;;20.51;42.15;100992.33;109333;1280;21868;-86
2021/12/27 01:16:28;;;;;;;;;79.00;61.00;;;;;20.48;42.37;100990.05;109340;1279;23138;-86
2021/12/27 01:18:54;;;;;;;;;80.33;62.33;;;;;20.48;42.26;100988.97;109347;1280;20976;-86
2021/12/27 01:21:20;;;;;;;;;77.33;60.33;;;;;20.49;42.18;100998.67;109340;1279;23416;-85
2021/12/27 01:23:46;;;;;;;;;78.33;59.67;;;;;20.50;42.08;101005.33;109315;1280;23662;-86
2021/12/27 01:26:12;;;;;;;;;77.33;60.67;;;;;20.49;42.15;101006.17;109353;1280;20226;-86
2021/12/27 01:28:40;;;;;;;;;83.00;62.33;;;;;20.50;42.18;101010.33;109366;1280;20430;-86
2021/12/27 01:31:05;;;;;;;;;79.67;59.33;;;;;20.48;41.98;101002.58;109380;1280;20813;-86
2021/12/27 01:33:31;;;;;;;;;80.67;62.00;;;;;20.48;42.07;100997.38;109365;1279;19460;-86
2021/12/27 01:35:57;;;;;;;;;77.50;60.00;;;;;20.48;42.07;100996.25;109359;1280;24039;-86
2021/12/27 01:38:23;;;;;;;;;76.00;59.33;;;;;20.47;42.02;100998.20;109317;1279;19155;-85
2021/12/27 01:40:49;;;;;;;;;84.00;63.67;;;;;20.48;41.90;100997.79;109317;1279;19550;-86
2021/12/27 01:43:15;;;;;;;;;80.67;60.33;;;;;20.48;41.92;101000.68;109365;1280;20204;-86
2021/12/27 01:45:40;;;;;;;;;82.67;62.00;;;;;20.47;42.03;101004.04;109349;1280;23908;-86
2021/12/27 01:48:07;;;;;;;;;80.67;63.00;;;;;20.47;41.85;101004.59;109341;1280;21572;-87
2021/12/27 01:50:33;;;;;;;;;82.67;62.00;;;;;20.46;41.73;101001.16;109327;1279;20517;-87
2021/12/27 01:52:59;;;;;;;;;80.67;61.00;;;;;20.47;41.95;101008.20;109340;1280;19137;-86
2021/12/27 01:55:25;;;;;;;;;78.33;61.00;;;;;20.47;41.77;101008.20;109380;1280;19979;-86
2021/12/27 01:57:51;;;;;;;;;79.00;61.00;;;;;20.46;41.76;101010.83;109335;1280;21364;-86
2021/12/27 02:00:17;;;;;;;;;84.00;63.33;;;;;20.45;41.60;101006.05;109310;1280;23126;-86
2021/12/27 02:02:42;;;;;;;;;80.00;60.00;;;;;20.43;41.70;101004.79;109307;1280;19937;-86
2021/12/27 02:05:08;;;;;;;;;78.00;62.00;;;;;20.43;41.73;101004.17;109306;1280;23904;-86
2021/12/27 02:07:34;;;;;;;;;83.00;61.33;;;;;20.43;41.48;100999.71;109350;1280;19709;-86
2021/12/27 02:10:02;;;;;;;;;82.67;63.00;;;;;20.42;41.64;101002.17;109371;1280;22078;-86
2021/12/27 02:12:28;;;;;;;;;85.00;64.67;;;;;20.41;41.55;100998.63;109324;1280;20432;-86
2021/12/27 02:14:54;;;;;;;;;83.00;63.00;;;;;20.40;41.57;100995.16;109315;1280;19509;-86
2021/12/27 02:17:20;;;;;;;;;83.67;62.67;;;;;20.40;41.44;101002.41;109320;1279;20066;-86
2021/12/27 02:19:46;;;;;;;;;79.00;62.67;;;;;20.39;41.38;101004.84;109312;1279;20147;-86
2021/12/27 02:22:12;;;;;;;;;83.00;63.00;;;;;20.39;41.57;100999.91;109312;1279;19693;-86
2021/12/27 02:24:40;;;;;;;;;80.67;62.33;;;;;20.39;41.39;100999.77;109381;1279;19374;-86
2021/12/27 02:27:06;;;;;;;;;80.67;63.00;;;;;20.39;41.36;100996.85;109327;1279;22152;-86
2021/12/27 02:29:31;;;;;;;;;79.00;62.33;;;;;20.39;41.30;100995.29;109348;1279;20239;-86
2021/12/27 02:31:57;;;;;;;;;88.00;65.00;;;;;20.38;41.28;100993.20;109293;1280;19701;-86
2021/12/27 02:34:23;;;;;;;;;82.67;63.00;;;;;20.39;41.18;100998.91;109329;1280;20346;-86
2021/12/27 02:36:49;;;;;;;;;78.33;61.00;;;;;20.37;41.35;100995.15;109323;1280;22840;-86
2021/12/27 02:39:15;;;;;;;;;81.33;61.67;;;;;20.37;41.22;100999.40;109347;1279;19467;-86
2021/12/27 02:41:41;;;;;;;;;79.00;60.00;;;;;20.36;41.28;101002.34;109317;1279;21556;-86
2021/12/27 02:44:07;;;;;;;;;83.67;63.00;;;;;20.35;41.29;101001.69;109318;1279;19198;-86
2021/12/27 02:46:34;;;;;;;;;81.33;62.00;;;;;20.35;41.06;100994.40;109275;1280;20138;-86
2021/12/27 02:49:00;;;;;;;;;87.67;63.67;;;;;20.34;41.20;100994.40;109239;1279;20936;-86
2021/12/27 02:51:25;;;;;;;;;83.67;63.00;;;;;20.34;41.12;100994.20;109289;1280;19268;-86
2021/12/27 02:53:51;;;;;;;;;81.67;63.00;;;;;20.36;41.01;100997.60;109289;1280;19593;-86
2021/12/27 02:56:17;;;;;;;;;84.00;65.00;;;;;20.35;40.85;100998.56;109311;1280;23016;-86
2021/12/27 02:58:44;;;;;;;;;84.00;63.00;;;;;20.36;40.72;100997.30;109324;1280;22034;-86
2021/12/27 03:01:10;;;;;;;;;79.67;61.00;;;;;20.35;40.86;100997.70;109280;1279;23145;-86
2021/12/27 03:03:36;;;;;;;;;84.00;64.00;;;;;20.35;40.59;100992.95;109337;1279;21606;-86
2021/12/27 03:06:02;;;;;;;;;83.33;62.67;;;;;20.35;40.66;100994.95;109355;1280;19164;-86
2021/12/27 03:08:28;;;;;;;;;78.67;60.33;;;;;20.35;40.65;100992.29;109321;1280;19437;-85
2021/12/27 03:10:54;;;;;;;;;80.33;64.00;;;;;20.35;40.54;100989.71;109291;1279;20126;-85
2021/12/27 03:13:19;;;;;;;;;81.00;63.00;;;;;20.35;40.63;100991.58;109119;1280;19263;-85
2021/12/27 03:15:45;;;;;;;;;87.00;64.00;;;;;20.35;40.52;100993.77;109067;1281;24000;-86
2021/12/27 03:18:11;;;;;;;;;82.33;64.33;;;;;20.35;40.60;100994.79;109082;1282;21687;-86
2021/12/27 03:20:37;;;;;;;;;83.00;63.67;;;;;20.34;40.51;100991.11;109328;1279;19670;-86
2021/12/27 03:23:03;;;;;;;;;85.00;63.67;;;;;20.33;40.42;100991.39;109348;1280;19603;-86
2021/12/27 03:25:29;;;;;;;;;80.33;63.00;;;;;20.34;40.43;100992.21;109330;1280;22400;-86
2021/12/27 03:27:54;;;;;;;;;78.67;60.00;;;;;20.31;40.30;100990.27;109339;1280;20777;-86
2021/12/27 03:30:20;;;;;;;;;82.00;61.67;;;;;20.34;40.35;100996.14;109299;1279;19465;-86
2021/12/27 03:32:46;;;;;;;;;82.67;63.00;;;;;20.35;40.28;100994.48;109333;1280;20069;-85
2021/12/27 03:35:14;;;;;;;;;83.00;64.00;;;;;20.34;40.42;100990.04;109296;1279;24590;-85
2021/12/27 03:37:40;;;;;;;;;88.50;65.00;;;;;20.34;40.28;100985.80;109338;1280;24211;-86
2021/12/27 03:40:06;;;;;;;;;83.67;63.00;;;;;20.33;40.27;100987.72;109302;1280;21670;-85
2021/12/27 03:42:32;;;;;;;;;83.33;62.67;;;;;20.35;40.21;100985.04;109316;1280;19161;-85
2021/12/27 03:44:57;;;;;;;;;82.00;60.33;;;;;20.34;40.16;100981.85;109330;1280;23507;-85
2021/12/27 03:47:23;;;;;;;;;82.00;62.00;;;;;20.34;40.15;100979.70;109308;1280;22920;-86
2021/12/27 03:49:49;;;;;;;;;84.00;63.00;;;;;20.34;40.00;100972.63;109296;1280;19178;-86
2021/12/27 03:52:15;;;;;;;;;83.00;63.00;;;;;20.34;40.18;100971.54;109313;1280;20144;-85
2021/12/27 03:54:41;;;;;;;;;78.00;63.00;;;;;20.34;39.95;100968.64;109335;1280;20124;-86
2021/12/27 03:57:07;;;;;;;;;83.00;63.00;;;;;20.33;39.99;100965.46;109284;1280;23299;-86
2021/12/27 03:59:49;;;;;;;;;84.33;63.00;;;;;20.32;39.99;100964.27;109306;1280;20935;-87
2021/12/27 04:02:15;;;;;;;;;85.00;64.00;;;;;20.31;40.10;100962.07;109319;1279;21785;-86
2021/12/27 04:04:41;;;;;;;;;80.00;62.00;;;;;20.31;39.96;100961.15;109357;1279;19139;-85
2021/12/27 04:07:08;;;;;;;;;87.33;63.00;;;;;20.31;39.98;100961.36;109349;1280;19493;-85
2021/12/27 04:09:33;;;;;;;;;80.50;63.50;;;;;20.31;39.86;100960.81;109363;1279;23183;-85
2021/12/27 04:11:59;;;;;;;;;85.67;65.00;;;;;20.29;40.05;100958.77;109355;1280;19613;-86
2021/12/27 04:14:25;;;;;;;;;85.67;63.67;;;;;20.30;39.91;100958.20;109384;1279;19426;-83
2021/12/27 04:16:51;;;;;;;;;84.33;64.00;;;;;20.30;39.86;100956.33;109323;1279;21814;-81
2021/12/27 04:19:17;;;;;;;;;83.00;63.00;;;;;20.30;39.88;100959.66;109303;1280;19239;-85
2021/12/27 04:21:43;;;;;;;;;80.67;63.00;;;;;20.30;39.85;100960.92;109410;1279;19457;-85
2021/12/27 04:24:09;;;;;;;;;78.33;60.67;;;;;20.30;39.63;100960.64;109319;1279;20852;-85
2021/12/27 04:26:35;;;;;;;;;80.50;63.00;;;;;20.30;39.94;100960.16;109329;1279;23549;-85
2021/12/27 04:29:00;;;;;;;;;82.67;65.00;;;;;20.30;39.91;100955.98;109312;1279;25226;-85
2021/12/27 04:31:26;;;;;;;;;79.00;63.00;;;;;20.29;39.86;100946.96;109343;1279;22005;-85
2021/12/27 04:33:52;;;;;;;;;84.67;65.00;;;;;20.29;39.69;100948.06;109368;1280;20862;-85
2021/12/27 04:36:18;;;;;;;;;80.33;62.00;;;;;20.29;39.61;100951.52;109306;1279;20265;-85
2021/12/27 04:38:44;;;;;;;;;79.33;60.33;;;;;20.29;39.80;100946.82;109323;1280;20693;-85
2021/12/27 04:41:10;;;;;;;;;76.33;60.33;;;;;20.28;39.72;100950.71;109287;1279;19208;-85
2021/12/27 04:43:35;;;;;;;;;78.33;60.00;;;;;20.28;39.70;100954.21;109347;1280;21982;-85
2021/12/27 04:46:02;;;;;;;;;79.00;62.00;;;;;20.27;39.59;100954.23;109342;1279;22099;-85
2021/12/27 04:48:28;;;;;;;;;82.33;61.00;;;;;20.27;39.56;100951.58;109358;1279;19383;-85
2021/12/27 04:50:54;;;;;;;;;81.67;62.33;;;;;20.26;39.64;100946.91;109380;1279;20106;-85
2021/12/27 04:53:20;;;;;;;;;79.67;62.67;;;;;20.27;39.63;100943.38;109355;1280;20657;-86
2021/12/27 04:55:46;;;;;;;;;82.00;61.00;;;;;20.25;39.46;100937.60;109284;1280;23473;-85
2021/12/27 04:58:11;;;;;;;;;80.00;63.33;;;;;20.26;39.52;100940.55;109271;1279;20072;-86
2021/12/27 05:00:37;;;;;;;;;82.67;63.67;;;;;20.26;39.52;100938.71;109312;1280;20126;-85
2021/12/27 05:03:03;;;;;;;;;83.00;61.00;;;;;20.27;39.44;100939.00;109333;1280;23541;-85
2021/12/27 05:05:30;;;;;;;;;77.33;61.33;;;;;20.26;39.55;100936.73;109367;1280;21015;-85
2021/12/27 05:07:57;;;;;;;;;76.67;60.33;;;;;20.26;39.61;100937.83;109335;1280;22378;-85
2021/12/27 05:10:23;;;;;;;;;87.00;63.00;;;;;20.26;39.59;100936.20;109277;1280;20898;-85
2021/12/27 05:12:49;;;;;;;;;77.67;60.33;;;;;20.27;39.53;100933.44;109402;1279;19802;-85
2021/12/27 05:15:15;;;;;;;;;85.67;63.67;;;;;20.25;39.32;100933.83;109346;1280;23826;-85
2021/12/27 05:17:42;;;;;;;;;77.33;59.00;;;;;20.26;39.34;100933.20;109319;1280;19226;-85
2021/12/27 05:20:08;;;;;;;;;84.67;61.00;;;;;20.26;39.30;100927.39;109363;1279;22909;-86
2021/12/27 05:22:34;;;;;;;;;77.67;60.00;;;;;20.25;39.42;100926.74;109332;1280;22072;-85
2021/12/27 05:25:00;;;;;;;;;80.33;61.00;;;;;20.24;39.19;100925.19;109356;1279;19128;-84
2021/12/27 05:27:26;;;;;;;;;82.33;61.00;;;;;20.25;39.25;100921.52;109387;1280;21697;-85
2021/12/27 05:29:52;;;;;;;;;75.67;59.00;;;;;20.26;39.18;100922.86;109396;1280;20043;-85
2021/12/27 05:32:17;;;;;;;;;82.00;61.00;;;;;20.25;39.11;100919.46;109329;1279;25223;-85
2021/12/27 05:34:43;;;;;;;;;79.33;62.00;;;;;20.25;39.20;100920.89;109348;1279;22051;-85
2021/12/27 05:37:09;;;;;;;;;76.67;60.00;;;;;20.26;39.15;100923.55;109322;1279;20113;-85
2021/12/27 05:39:35;;;;;;;;;83.00;61.00;;;;;20.25;39.12;100923.81;109331;1280;20544;-85
2021/12/27 05:42:01;;;;;;;;;84.50;65.00;;;;;20.24;39.02;100918.98;109353;1280;21882;-85
2021/12/27 05:44:27;;;;;;;;;76.67;60.33;;;;;20.25;39.08;100916.82;109335;1279;22473;-86
2021/12/27 05:46:54;;;;;;;;;84.67;62.67;;;;;20.24;39.03;100917.02;109342;1279;19303;-84
2021/12/27 05:49:20;;;;;;;;;79.67;59.67;;;;;20.24;38.92;100919.61;109339;1280;19759;-85
2021/12/27 05:51:46;;;;;;;;;73.67;59.67;;;;;20.25;38.93;100925.45;109354;1279;21589;-86
2021/12/27 05:54:12;;;;;;;;;84.00;61.00;;;;;20.25;38.78;100924.02;109308;1280;19166;-87
2021/12/27 05:56:38;;;;;;;;;76.33;60.00;;;;;20.24;38.94;100919.73;109302;1280;19690;-85
2021/12/27 05:59:04;;;;;;;;;82.33;61.67;;;;;20.24;38.99;100914.13;109330;1280;20115;-85
2021/12/27 06:01:30;;;;;;;;;82.00;62.00;;;;;20.23;39.07;100917.16;109332;1280;20543;-85
2021/12/27 06:03:57;;;;;;;;;77.67;60.33;;;;;20.24;38.96;100919.44;109355;1280;19524;-86
2021/12/27 06:06:23;;;;;;;;;81.33;62.67;;;;;20.23;38.81;100921.68;109346;1280;21949;-84
2021/12/27 06:08:49;;;;;;;;;74.00;60.50;;;;;20.23;38.75;100925.13;109302;1279;19301;-83
2021/12/27 06:11:15;;;;;;;;;79.00;61.00;;;;;20.23;38.83;100928.05;109335;1280;19563;-85
2021/12/27 06:13:41;;;;;;;;;84.00;60.00;;;;;20.22;38.84;100929.20;109297;1279;22796;-84
2021/12/27 06:16:07;;;;;;;;;78.67;60.00;;;;;20.21;38.68;100927.33;109323;1280;22382;-83
2021/12/27 06:18:33;;;;;;;;;73.33;56.67;;;;;20.22;38.72;100924.40;109313;1279;20243;-85
2021/12/27 06:20:58;;;;;;;;;81.50;62.50;;;;;20.22;38.60;100930.77;109345;1279;22865;-84
2021/12/27 06:23:24;;;;;;;;;80.67;59.67;;;;;20.21;38.80;100931.88;109254;1279;23158;-84
2021/12/27 06:25:50;;;;;;;;;83.67;60.00;;;;;20.21;38.56;100940.81;109301;1279;21238;-86
2021/12/27 06:28:17;;;;;;;;;72.00;58.67;;;;;20.20;38.48;100942.70;109304;1280;23223;-84
2021/12/27 06:30:43;;;;;;;;;76.00;60.00;;;;;20.19;38.83;100940.11;109319;1279;20312;-85
2021/12/27 06:33:10;;;;;;;;;77.33;59.33;;;;;20.20;38.76;100938.88;109328;1279;19462;-84
2021/12/27 06:35:36;;;;;;;;;78.33;59.67;;;;;20.21;38.77;100943.30;109283;1280;22520;-81
2021/12/27 06:38:02;;;;;;;;;77.33;58.67;;;;;20.21;38.75;100944.10;109308;1280;19174;-79
2021/12/27 06:40:28;;;;;;;;;75.67;59.67;;;;;20.26;38.77;100945.28;109315;1279;22274;-79
2021/12/27 06:42:54;;;;;;;;;69.00;56.67;;;;;20.30;38.81;100944.55;109371;1280;22208;-77
2021/12/27 06:45:19;;;;;;;;;70.33;56.67;;;;;20.27;38.84;100942.15;109295;1280;19194;-78
2021/12/27 06:47:45;;;;;;;;;68.00;56.00;;;;;20.24;38.74;100941.92;109292;1280;22363;-80
2021/12/27 06:50:11;;;;;;;;;74.00;57.00;;;;;20.24;38.71;100943.31;109310;1279;20737;-79
2021/12/27 06:52:37;;;;;;;;;64.67;49.33;;;;;20.30;38.74;100944.19;109318;1279;19035;-78
2021/12/27 06:55:03;;;;;;;;;66.67;53.00;;;;;20.29;39.27;100938.46;109290;1280;20154;-75
2021/12/27 06:57:29;;;;;;;;;67.00;53.00;;;;;20.37;39.67;100942.84;109313;1280;20229;-79
2021/12/27 06:59:55;;;;;;;;;64.00;49.00;;;;;20.42;40.08;100946.49;109253;1280;23765;-80
2021/12/27 07:02:20;;;;;;;;;63.67;52.00;;;;;20.43;40.04;100946.39;109330;1280;21980;-79
2021/12/27 07:04:46;;;;;;;;;65.67;50.33;;;;;20.43;40.17;100947.66;109297;1280;20157;-78
2021/12/27 07:07:12;;;;;;;;;62.00;49.50;;;;;20.45;40.56;100944.75;109314;1280;19328;-76
2021/12/27 07:09:38;;;;;;;;;60.67;49.00;;;;;20.48;40.42;100941.42;109314;1279;19447;-78
2021/12/27 07:12:04;;;;;;;;;64.33;48.33;;;;;20.48;40.42;100945.14;109378;1280;20802;-82
2021/12/27 07:14:30;;;;;;;;;57.00;47.50;;;;;20.46;40.70;100943.52;109287;1280;19243;-81
2021/12/27 07:16:55;;;;;;;;;58.00;49.00;;;;;20.40;40.76;100944.17;109288;1279;22317;-80
2021/12/27 07:19:21;;;;;;;;;57.67;45.00;;;;;20.40;40.57;100943.63;109337;1280;20065;-83
2021/12/27 07:21:47;;;;;;;;;61.00;45.50;;;;;20.38;40.60;100946.14;109337;1280;19261;-86
2021/12/27 07:24:13;;;;;;;;;56.00;44.67;;;;;20.38;40.71;100950.05;109256;1280;19506;-83
2021/12/27 07:26:39;;;;;;;;;64.33;53.00;;;;;20.35;40.08;100955.10;109254;1279;20676;-84
2021/12/27 07:29:05;;;;;;;;;69.00;56.00;;;;;19.74;38.27;100949.23;109262;1280;19155;-80
2021/12/27 07:31:30;;;;;;;;;67.67;52.00;;;;;19.77;38.07;100954.48;109276;1280;22753;-79
2021/12/27 07:33:56;;;;;;;;;66.67;54.00;;;;;19.93;38.79;100954.90;109303;1279;22286;-82
2021/12/27 07:36:22;;;;;;;;;62.00;49.00;;;;;20.08;38.96;100953.45;109240;1279;19716;-82
2021/12/27 07:38:48;;;;;;;;;63.67;48.67;;;;;20.15;38.97;100950.89;109295;1280;20084;-82
2021/12/27 07:41:14;;;;;;;;;65.00;48.33;;;;;20.21;39.05;100947.73;109320;1280;20038;-79
2021/12/27 07:43:40;;;;;;;;;56.00;45.00;;;;;20.22;39.78;100950.43;109355;1280;19200;-79
2021/12/27 07:46:06;;;;;;;;;50.00;44.00;;;;;20.27;40.34;100952.30;109320;1280;20210;-76
2021/12/27 07:48:31;;;;;;;;;59.50;46.00;;;;;20.32;40.52;100953.91;109273;1280;20711;-84
2021/12/27 07:50:57;;;;;;;;;54.50;44.00;;;;;20.36;40.75;100960.71;109224;1280;23368;-83
2021/12/27 07:53:23;;;;;;;;;56.00;46.00;;;;;20.40;40.43;100959.18;109112;1279;20941;-81
2021/12/27 07:55:49;;;;;;;;;53.00;44.00;;;;;20.41;40.47;100964.05;109128;1280;22243;-81
2021/12/27 07:58:15;;;;;;;;;51.00;42.00;;;;;20.39;40.39;100966.87;109253;1280;19148;-81
2021/12/27 08:00:41;;;;;;;;;46.50;40.50;;;;;20.35;40.21;100965.02;109328;1280;20046;-81
2021/12/27 08:03:06;;;;;;;;;42.50;39.50;;;;;20.38;40.39;100968.49;109320;1279;23170;-81
2021/12/27 08:05:32;;;;;;;;;46.50;41.00;;;;;20.38;40.17;100964.83;109302;1279;19019;-80
2021/12/27 08:07:58;;;;;;;;;42.00;40.50;;;;;20.39;40.15;100963.67;109322;1279;19375;-82
2021/12/27 08:10:25;;;;;;;;;49.00;39.00;;;;;20.40;40.09;100966.13;109317;1280;20190;-83
2021/12/27 08:12:51;;;;;;;;;44.00;39.00;;;;;20.39;40.19;100966.16;109294;1280;19745;-82
2021/12/27 08:15:17;;;;;;;;;45.50;39.00;;;;;20.40;40.22;100965.79;109347;1279;22748;-83
2021/12/27 08:17:43;;;;;;;;;41.00;34.00;;;;;20.41;40.32;100965.15;109283;1279;22887;-82
2021/12/27 08:20:08;;;;;;;;;38.00;34.00;;;;;20.41;40.38;100967.42;108572;1280;966275;-82
2021/12/27 08:22:34;;;;;;;;;35.00;31.00;;;;;20.38;40.42;100968.98;109325;1280;19465;-82
2021/12/27 08:25:00;;;;;;;;;38.50;34.50;;;;;20.42;40.69;100963.14;109320;1279;20071;-82
2021/12/27 08:27:26;;;;;;;;;38.00;37.00;;;;;20.43;40.61;100961.58;109298;1280;24836;-73
2021/12/27 08:29:52;;;;;;;;;42.00;34.50;;;;;20.49;40.63;100957.02;109334;1280;20952;-82
2021/12/27 08:32:18;;;;;;;;;37.00;32.00;;;;;20.59;40.68;100960.55;109309;1280;25227;-79
2021/12/27 08:34:43;;;;;;;;;35.00;32.00;;;;;20.64;40.83;100956.64;109308;1279;19212;-75
2021/12/27 08:37:10;;;;;;;;;36.67;31.00;;;;;20.68;41.02;100947.10;109148;1281;19610;-83
2021/12/27 08:39:38;;;;;;;;;36.67;31.00;;;;;20.72;41.68;100946.66;109277;1279;22858;-77
2021/12/27 08:42:07;;;;;;;;;35.67;33.33;;;;;20.75;41.81;100953.86;109243;1280;20905;-80
2021/12/27 08:44:33;;;;;;;;;43.33;35.67;;;;;20.78;42.02;100956.86;109291;1280;19915;-78
2021/12/27 08:46:59;;;;;;;;;36.50;31.00;;;;;20.80;41.98;100960.20;109272;1280;20540;-77
2021/12/27 08:49:25;;;;;;;;;34.00;29.00;;;;;20.78;41.94;100962.03;109322;1280;22033;-81
2021/12/27 08:51:50;;;;;;;;;43.00;34.00;;;;;20.82;42.18;100958.25;109282;1280;19358;-79
2021/12/27 08:54:16;;;;;;;;;33.50;30.00;;;;;20.82;42.10;100958.98;109318;1279;19972;-81
2021/12/27 08:56:42;;;;;;;;;28.00;27.00;;;;;20.82;42.33;100962.73;109307;1280;21217;-82
2021/12/27 08:59:08;;;;;;;;;31.50;30.00;;;;;20.85;42.72;100961.48;109277;1279;24647;-80
2021/12/27 09:01:34;;;;;;;;;30.00;29.00;;;;;20.86;42.53;100955.73;109229;1280;21891;-81
2021/12/27 09:04:00;;;;;;;;;40.00;31.50;;;;;20.86;42.90;100951.73;109313;1280;19161;-82
2021/12/27 09:06:25;;;;;;;;;28.50;27.00;;;;;20.88;42.77;100948.58;109275;1280;23945;-79
2021/12/27 09:08:52;;;;;;;;;34.67;31.00;;;;;20.92;42.12;100941.05;109301;1280;21847;-78
2021/12/27 09:11:18;;;;;;;;;76.33;57.33;;;;;20.98;42.17;100937.25;109334;1279;19183;-78
2021/12/27 09:13:44;;;;;;;;;35.50;32.50;;;;;21.60;41.38;100928.73;109347;1279;20058;-80
2021/12/27 09:16:11;;;;;;;;;39.00;32.00;;;;;21.63;40.60;100935.11;109292;1279;20599;-78
2021/12/27 09:18:37;;;;;;;;;38.00;33.00;;;;;21.33;41.09;100936.00;109309;1280;20417;-78
2021/12/27 09:21:03;;;;;;;;;32.50;29.50;;;;;21.19;41.12;100931.13;109313;1279;19562;-79
2021/12/27 09:23:29;;;;;;;;;39.00;32.00;;;;;21.12;41.30;100928.96;109321;1280;20069;-76
2021/12/27 09:25:55;;;;;;;;;33.50;31.00;;;;;21.10;41.27;100921.77;109313;1279;24749;-77
2021/12/27 09:28:21;;;;;;;;;35.00;31.00;;;;;21.10;41.77;100922.20;109318;1279;19604;-75
2021/12/27 09:30:46;;;;;;;;;31.50;29.00;;;;;21.07;41.57;100924.15;109333;1280;20677;-78
2021/12/27 09:33:12;;;;;;;;;41.50;36.00;;;;;21.05;41.93;100926.71;109281;1280;19357;-77
2021/12/27 09:35:38;;;;;;;;;38.00;33.50;;;;;21.04;41.90;100922.84;109288;1280;20094;-75
2021/12/27 09:38:04;;;;;;;;;38.00;32.00;;;;;20.98;42.11;100917.46;109161;1279;23473;-75
2021/12/27 09:40:30;;;;;;;;;37.50;33.00;;;;;21.02;42.00;100913.26;109236;1279;20171;-76
2021/12/27 09:42:56;;;;;;;;;35.00;32.00;;;;;21.01;41.88;100907.04;109295;1279;19353;-76
2021/12/27 09:45:21;;;;;;;;;40.00;35.00;;;;;20.98;42.09;100906.11;109273;1279;20594;-78
2021/12/27 09:47:49;;;;;;;;;47.50;40.00;;;;;20.99;42.06;100899.89;109302;1280;19254;-75
2021/12/27 09:50:18;;;;;;;;;48.00;40.00;;;;;21.00;42.14;100902.04;109294;1280;22151;-81
2021/12/27 09:52:44;;;;;;;;;42.67;39.33;;;;;20.99;42.23;100901.14;109330;1280;21705;-78
2021/12/27 09:55:09;;;;;;;;;49.00;40.00;;;;;20.98;42.31;100904.27;109276;1280;19215;-77
2021/12/27 09:57:35;;;;;;;;;46.00;40.00;;;;;20.97;42.15;100905.05;109296;1279;19537;-76
2021/12/27 10:00:02;;;;;;;;;44.67;39.33;;;;;20.95;41.84;100905.81;109273;1280;20508;-76
2021/12/27 10:02:27;;;;;;;;;41.00;36.50;;;;;20.93;41.94;100901.73;109231;1280;22698;-76
2021/12/27 10:04:53;;;;;;;;;36.50;32.50;;;;;20.92;41.58;100900.36;109285;1280;19952;-77
2021/12/27 10:07:19;;;;;;;;;40.33;31.67;;;;;20.90;41.32;100896.39;109273;1280;21727;-77
2021/12/27 10:09:45;;;;;;;;;42.67;38.00;;;;;20.91;41.45;100893.63;109195;1279;19483;-78
2021/12/27 10:12:11;;;;;;;;;41.00;36.00;;;;;20.89;41.06;100894.02;109261;1279;19501;-75
2021/12/27 10:14:37;;;;;;;;;38.00;32.50;;;;;20.88;40.77;100894.87;109341;1279;20857;-77
2021/12/27 10:17:03;;;;;;;;;31.00;30.50;;;;;20.86;41.21;100891.40;109288;1279;19170;-77
2021/12/27 10:19:29;;;;;;;;;39.00;35.00;;;;;20.85;41.50;100891.60;109341;1280;25652;-77
2021/12/27 10:21:55;;;;;;;;;34.00;29.50;;;;;20.83;41.52;100891.86;109309;1279;20203;-77
2021/12/27 10:24:20;;;;;;;;;31.00;29.00;;;;;20.80;41.64;100887.70;109277;1280;23609;-78
2021/12/27 10:26:46;;;;;;;;;35.50;31.50;;;;;20.78;41.70;100883.92;109287;1279;19410;-77
2021/12/27 10:29:12;;;;;;;;;34.00;29.00;;;;;20.76;41.75;100878.79;109153;1279;20073;-77
2021/12/27 10:31:38;;;;;;;;;71.67;55.00;;;;;20.78;41.36;100874.52;109288;1280;22760;-77
2021/12/27 10:34:04;;;;;;;;;108.00;83.33;;;;;20.78;41.42;100874.86;109263;1280;22277;-78
2021/12/27 10:36:30;;;;;;;;;93.67;69.33;;;;;20.78;41.34;100876.13;109302;1280;22636;-77
2021/12/27 10:38:55;;;;;;;;;165.00;124.50;;;;;20.77;41.34;100878.48;109290;1280;19298;-79
2021/12/27 10:41:23;;;;;;;;;172.00;130.50;;;;;20.77;41.49;100875.59;109238;1280;23138;-85
2021/12/27 10:43:52;;;;;;;;;185.25;141.00;;;;;20.78;42.10;100869.24;109239;1280;23069;-79
2021/12/27 10:46:18;;;;;;;;;170.00;131.75;;;;;20.82;42.66;100865.92;109162;1280;24479;-79
2021/12/27 10:48:44;;;;;;;;;146.67;113.67;;;;;20.86;42.96;100857.99;109243;1280;19416;-80
2021/12/27 10:51:10;;;;;;;;;143.00;110.25;;;;;20.90;42.07;100853.39;109239;1279;22483;-79
2021/12/27 10:53:36;;;;;;;;;226.25;185.25;;;;;20.90;41.52;100853.08;109259;1280;19156;-79
2021/12/27 10:56:02;;;;;;;;;226.00;182.00;;;;;20.87;41.67;100850.23;109260;1280;19577;-79